sensor_id;sensor_type;location;lat;lon;timestamp;P1;durP1;ratioP1;P2;durP2;ratioP2
18411;SDS011;27097;51.738;19.472;2023-07-13T00:01:43;7.25;;;4.78;;
18411;SDS011;27097;51.738;19.472;2023-07-13T00:04:11;7.32;;;4.90;;
18411;SDS011;27097;51.738;19.472;2023-07-13T00:06:41;9.70;;;5.03;;
18411;SDS011;27097;51.738;19.472;2023-07-13T00:09:09;9.13;;;5.05;;
18411;SDS011;27097;51.738;19.472;2023-07-13T00:11:37;12.30;;;4.82;;
18411;SDS011;27097;51.738;19.472;2023-07-13T00:14:04;8.27;;;5.20;;
18411;SDS011;27097;51.738;19.472;2023-07-13T00:16:33;12.57;;;4.70;;
18411;SDS011;27097;51.738;19.472;2023-07-13T00:19:00;8.45;;;5.70;;
18411;SDS011;27097;51.738;19.472;2023-07-13T00:21:27;7.90;;;5.13;;
18411;SDS011;27097;51.738;19.472;2023-07-13T00:23:55;8.63;;;5.03;;
18411;SDS011;27097;51.738;19.472;2023-07-13T00:26:22;8.02;;;4.65;;
18411;SDS011;27097;51.738;19.472;2023-07-13T00:28:49;10.48;;;5.00;;
18411;SDS011;27097;51.738;19.472;2023-07-13T00:31:16;7.70;;;4.95;;
18411;SDS011;27097;51.738;19.472;2023-07-13T00:33:43;7.60;;;4.90;;
18411;SDS011;27097;51.738;19.472;2023-07-13T00:36:10;8.55;;;5.40;;
18411;SDS011;27097;51.738;19.472;2023-07-13T00:38:38;7.97;;;5.18;;
18411;SDS011;27097;51.738;19.472;2023-07-13T00:41:06;9.90;;;4.93;;
18411;SDS011;27097;51.738;19.472;2023-07-13T00:43:33;7.60;;;5.03;;
18411;SDS011;27097;51.738;19.472;2023-07-13T00:48:47;10.88;;;5.15;;
18411;SDS011;27097;51.738;19.472;2023-07-13T00:51:15;7.03;;;4.65;;
18411;SDS011;27097;51.738;19.472;2023-07-13T00:53:45;7.85;;;4.93;;
18411;SDS011;27097;51.738;19.472;2023-07-13T00:56:14;8.73;;;4.90;;
18411;SDS011;27097;51.738;19.472;2023-07-13T00:58:41;7.25;;;4.88;;
18411;SDS011;27097;51.738;19.472;2023-07-13T01:01:08;8.05;;;5.07;;
18411;SDS011;27097;51.738;19.472;2023-07-13T01:03:38;11.05;;;4.95;;
18411;SDS011;27097;51.738;19.472;2023-07-13T01:06:05;7.30;;;5.00;;
18411;SDS011;27097;51.738;19.472;2023-07-13T01:08:32;9.95;;;5.53;;
18411;SDS011;27097;51.738;19.472;2023-07-13T01:10:59;11.80;;;5.45;;
18411;SDS011;27097;51.738;19.472;2023-07-13T01:13:28;8.73;;;5.40;;
18411;SDS011;27097;51.738;19.472;2023-07-13T01:15:55;10.32;;;5.82;;
18411;SDS011;27097;51.738;19.472;2023-07-13T01:18:27;12.43;;;5.03;;
18411;SDS011;27097;51.738;19.472;2023-07-13T01:20:57;9.35;;;5.22;;
18411;SDS011;27097;51.738;19.472;2023-07-13T01:23:25;11.38;;;6.05;;
18411;SDS011;27097;51.738;19.472;2023-07-13T01:25:53;8.50;;;5.15;;
18411;SDS011;27097;51.738;19.472;2023-07-13T01:28:20;11.77;;;6.43;;
18411;SDS011;27097;51.738;19.472;2023-07-13T01:30:52;13.15;;;5.90;;
18411;SDS011;27097;51.738;19.472;2023-07-13T01:33:20;11.27;;;4.78;;
18411;SDS011;27097;51.738;19.472;2023-07-13T01:35:47;10.93;;;5.60;;
18411;SDS011;27097;51.738;19.472;2023-07-13T01:38:15;9.93;;;5.55;;
18411;SDS011;27097;51.738;19.472;2023-07-13T01:40:44;10.90;;;5.43;;
18411;SDS011;27097;51.738;19.472;2023-07-13T01:43:11;11.90;;;6.13;;
18411;SDS011;27097;51.738;19.472;2023-07-13T01:45:38;9.85;;;5.93;;
18411;SDS011;27097;51.738;19.472;2023-07-13T01:48:05;11.57;;;5.40;;
18411;SDS011;27097;51.738;19.472;2023-07-13T01:50:32;12.15;;;5.88;;
18411;SDS011;27097;51.738;19.472;2023-07-13T01:53:00;11.10;;;5.38;;
18411;SDS011;27097;51.738;19.472;2023-07-13T01:55:28;8.77;;;4.90;;
18411;SDS011;27097;51.738;19.472;2023-07-13T01:57:55;9.70;;;5.28;;
18411;SDS011;27097;51.738;19.472;2023-07-13T02:00:22;12.32;;;5.47;;
18411;SDS011;27097;51.738;19.472;2023-07-13T02:02:49;10.15;;;5.65;;
18411;SDS011;27097;51.738;19.472;2023-07-13T02:05:17;10.02;;;5.35;;
18411;SDS011;27097;51.738;19.472;2023-07-13T02:07:44;8.88;;;5.45;;
18411;SDS011;27097;51.738;19.472;2023-07-13T02:10:11;10.27;;;5.57;;
18411;SDS011;27097;51.738;19.472;2023-07-13T02:12:40;9.35;;;5.88;;
18411;SDS011;27097;51.738;19.472;2023-07-13T02:15:08;9.93;;;6.05;;
18411;SDS011;27097;51.738;19.472;2023-07-13T02:17:36;9.32;;;5.50;;
18411;SDS011;27097;51.738;19.472;2023-07-13T02:20:03;8.18;;;5.07;;
18411;SDS011;27097;51.738;19.472;2023-07-13T02:22:31;11.57;;;5.32;;
18411;SDS011;27097;51.738;19.472;2023-07-13T02:24:58;10.57;;;5.00;;
18411;SDS011;27097;51.738;19.472;2023-07-13T02:27:25;9.52;;;5.80;;
18411;SDS011;27097;51.738;19.472;2023-07-13T02:29:53;8.23;;;4.88;;
18411;SDS011;27097;51.738;19.472;2023-07-13T02:32:20;7.72;;;5.47;;
18411;SDS011;27097;51.738;19.472;2023-07-13T02:34:50;7.65;;;4.82;;
18411;SDS011;27097;51.738;19.472;2023-07-13T02:37:17;8.70;;;5.20;;
18411;SDS011;27097;51.738;19.472;2023-07-13T02:39:44;10.15;;;5.28;;
18411;SDS011;27097;51.738;19.472;2023-07-13T02:42:10;8.18;;;5.10;;
18411;SDS011;27097;51.738;19.472;2023-07-13T02:44:37;6.00;;;4.28;;
18411;SDS011;27097;51.738;19.472;2023-07-13T02:47:06;9.77;;;4.88;;
18411;SDS011;27097;51.738;19.472;2023-07-13T02:49:33;8.38;;;5.05;;
18411;SDS011;27097;51.738;19.472;2023-07-13T02:52:00;8.15;;;5.40;;
18411;SDS011;27097;51.738;19.472;2023-07-13T02:54:27;6.95;;;4.65;;
18411;SDS011;27097;51.738;19.472;2023-07-13T02:56:54;6.78;;;4.82;;
18411;SDS011;27097;51.738;19.472;2023-07-13T02:59:21;11.27;;;5.68;;
18411;SDS011;27097;51.738;19.472;2023-07-13T03:01:47;9.82;;;5.68;;
18411;SDS011;27097;51.738;19.472;2023-07-13T03:04:16;8.90;;;5.22;;
18411;SDS011;27097;51.738;19.472;2023-07-13T03:06:44;7.45;;;5.20;;
18411;SDS011;27097;51.738;19.472;2023-07-13T03:09:12;7.75;;;5.70;;
18411;SDS011;27097;51.738;19.472;2023-07-13T03:11:39;9.50;;;5.53;;
18411;SDS011;27097;51.738;19.472;2023-07-13T03:14:07;10.88;;;6.00;;
18411;SDS011;27097;51.738;19.472;2023-07-13T03:16:34;11.02;;;5.55;;
18411;SDS011;27097;51.738;19.472;2023-07-13T03:19:01;7.95;;;5.25;;
18411;SDS011;27097;51.738;19.472;2023-07-13T03:21:29;9.05;;;5.53;;
18411;SDS011;27097;51.738;19.472;2023-07-13T03:23:56;9.65;;;5.85;;
18411;SDS011;27097;51.738;19.472;2023-07-13T03:26:23;10.85;;;6.18;;
18411;SDS011;27097;51.738;19.472;2023-07-13T03:28:50;7.55;;;5.45;;
18411;SDS011;27097;51.738;19.472;2023-07-13T03:31:17;9.68;;;5.70;;
18411;SDS011;27097;51.738;19.472;2023-07-13T03:33:46;9.15;;;5.45;;
18411;SDS011;27097;51.738;19.472;2023-07-13T03:36:16;12.93;;;6.35;;
18411;SDS011;27097;51.738;19.472;2023-07-13T03:38:46;9.93;;;6.05;;
18411;SDS011;27097;51.738;19.472;2023-07-13T03:41:15;8.55;;;6.03;;
18411;SDS011;27097;51.738;19.472;2023-07-13T03:43:42;8.15;;;5.82;;
18411;SDS011;27097;51.738;19.472;2023-07-13T03:46:09;8.13;;;5.65;;
18411;SDS011;27097;51.738;19.472;2023-07-13T03:48:36;8.27;;;5.70;;
18411;SDS011;27097;51.738;19.472;2023-07-13T03:51:05;10.48;;;5.47;;
18411;SDS011;27097;51.738;19.472;2023-07-13T03:53:31;14.45;;;6.18;;
18411;SDS011;27097;51.738;19.472;2023-07-13T03:56:00;14.02;;;6.05;;
18411;SDS011;27097;51.738;19.472;2023-07-13T03:58:28;10.98;;;6.40;;
18411;SDS011;27097;51.738;19.472;2023-07-13T04:00:57;10.30;;;6.57;;
18411;SDS011;27097;51.738;19.472;2023-07-13T04:03:24;13.07;;;6.45;;
18411;SDS011;27097;51.738;19.472;2023-07-13T04:05:53;9.75;;;6.40;;
18411;SDS011;27097;51.738;19.472;2023-07-13T04:08:25;13.68;;;6.20;;
18411;SDS011;27097;51.738;19.472;2023-07-13T04:10:53;10.57;;;6.45;;
18411;SDS011;27097;51.738;19.472;2023-07-13T04:13:21;11.55;;;6.65;;
18411;SDS011;27097;51.738;19.472;2023-07-13T04:15:48;17.58;;;6.60;;
18411;SDS011;27097;51.738;19.472;2023-07-13T04:18:16;11.40;;;6.28;;
18411;SDS011;27097;51.738;19.472;2023-07-13T04:20:44;9.45;;;5.93;;
18411;SDS011;27097;51.738;19.472;2023-07-13T04:23:11;12.00;;;6.35;;
18411;SDS011;27097;51.738;19.472;2023-07-13T04:25:38;15.02;;;6.65;;
18411;SDS011;27097;51.738;19.472;2023-07-13T04:28:05;9.95;;;6.60;;
18411;SDS011;27097;51.738;19.472;2023-07-13T04:30:34;10.60;;;6.55;;
18411;SDS011;27097;51.738;19.472;2023-07-13T04:33:01;14.55;;;6.50;;
18411;SDS011;27097;51.738;19.472;2023-07-13T04:35:29;11.20;;;6.25;;
18411;SDS011;27097;51.738;19.472;2023-07-13T04:37:56;13.07;;;6.30;;
18411;SDS011;27097;51.738;19.472;2023-07-13T04:40:23;9.60;;;6.18;;
18411;SDS011;27097;51.738;19.472;2023-07-13T04:42:50;12.18;;;6.43;;
18411;SDS011;27097;51.738;19.472;2023-07-13T04:45:17;13.75;;;6.60;;
18411;SDS011;27097;51.738;19.472;2023-07-13T04:47:45;12.32;;;7.20;;
18411;SDS011;27097;51.738;19.472;2023-07-13T04:50:12;9.35;;;6.57;;
18411;SDS011;27097;51.738;19.472;2023-07-13T04:52:44;15.35;;;6.60;;
18411;SDS011;27097;51.738;19.472;2023-07-13T04:55:11;12.95;;;6.50;;
18411;SDS011;27097;51.738;19.472;2023-07-13T04:57:38;12.70;;;6.93;;
18411;SDS011;27097;51.738;19.472;2023-07-13T05:00:06;16.10;;;6.63;;
18411;SDS011;27097;51.738;19.472;2023-07-13T05:02:34;14.18;;;7.47;;
18411;SDS011;27097;51.738;19.472;2023-07-13T05:05:02;10.65;;;6.72;;
18411;SDS011;27097;51.738;19.472;2023-07-13T05:07:29;12.82;;;6.88;;
18411;SDS011;27097;51.738;19.472;2023-07-13T05:09:57;13.68;;;7.13;;
18411;SDS011;27097;51.738;19.472;2023-07-13T05:12:24;12.65;;;6.95;;
18411;SDS011;27097;51.738;19.472;2023-07-13T05:14:51;11.60;;;6.55;;
18411;SDS011;27097;51.738;19.472;2023-07-13T05:17:18;11.57;;;6.80;;
18411;SDS011;27097;51.738;19.472;2023-07-13T05:19:45;12.20;;;6.40;;
18411;SDS011;27097;51.738;19.472;2023-07-13T05:22:13;13.77;;;5.95;;
18411;SDS011;27097;51.738;19.472;2023-07-13T05:24:40;10.93;;;6.13;;
18411;SDS011;27097;51.738;19.472;2023-07-13T05:27:07;11.00;;;6.53;;
18411;SDS011;27097;51.738;19.472;2023-07-13T05:29:34;8.98;;;6.35;;
18411;SDS011;27097;51.738;19.472;2023-07-13T05:32:01;11.73;;;6.47;;
18411;SDS011;27097;51.738;19.472;2023-07-13T05:34:28;8.73;;;6.38;;
18411;SDS011;27097;51.738;19.472;2023-07-13T05:36:55;11.20;;;6.03;;
18411;SDS011;27097;51.738;19.472;2023-07-13T05:39:23;11.60;;;6.25;;
18411;SDS011;27097;51.738;19.472;2023-07-13T05:41:51;12.00;;;6.70;;
18411;SDS011;27097;51.738;19.472;2023-07-13T05:44:18;11.90;;;6.63;;
18411;SDS011;27097;51.738;19.472;2023-07-13T05:46:45;15.25;;;7.15;;
18411;SDS011;27097;51.738;19.472;2023-07-13T05:49:12;12.63;;;6.25;;
18411;SDS011;27097;51.738;19.472;2023-07-13T05:51:38;20.95;;;6.28;;
18411;SDS011;27097;51.738;19.472;2023-07-13T05:54:05;8.98;;;6.10;;
18411;SDS011;27097;51.738;19.472;2023-07-13T05:56:33;15.02;;;6.18;;
18411;SDS011;27097;51.738;19.472;2023-07-13T05:59:00;11.07;;;6.40;;
18411;SDS011;27097;51.738;19.472;2023-07-13T06:01:29;10.55;;;6.45;;
18411;SDS011;27097;51.738;19.472;2023-07-13T06:03:56;14.25;;;6.50;;
18411;SDS011;27097;51.738;19.472;2023-07-13T06:06:23;13.05;;;6.00;;
18411;SDS011;27097;51.738;19.472;2023-07-13T06:08:50;13.98;;;6.80;;
18411;SDS011;27097;51.738;19.472;2023-07-13T06:11:19;10.90;;;7.68;;
18411;SDS011;27097;51.738;19.472;2023-07-13T06:13:49;11.65;;;7.03;;
18411;SDS011;27097;51.738;19.472;2023-07-13T06:16:17;9.00;;;6.30;;
18411;SDS011;27097;51.738;19.472;2023-07-13T06:18:44;18.52;;;6.97;;
18411;SDS011;27097;51.738;19.472;2023-07-13T06:21:12;11.40;;;6.45;;
18411;SDS011;27097;51.738;19.472;2023-07-13T06:23:40;13.43;;;7.07;;
18411;SDS011;27097;51.738;19.472;2023-07-13T06:26:08;11.77;;;6.55;;
18411;SDS011;27097;51.738;19.472;2023-07-13T06:28:36;11.02;;;6.40;;
18411;SDS011;27097;51.738;19.472;2023-07-13T06:31:06;12.52;;;6.07;;
18411;SDS011;27097;51.738;19.472;2023-07-13T06:33:34;10.50;;;6.45;;
18411;SDS011;27097;51.738;19.472;2023-07-13T06:36:02;9.68;;;5.57;;
18411;SDS011;27097;51.738;19.472;2023-07-13T06:38:33;10.98;;;5.85;;
18411;SDS011;27097;51.738;19.472;2023-07-13T06:41:01;14.95;;;6.75;;
18411;SDS011;27097;51.738;19.472;2023-07-13T06:43:30;9.85;;;6.05;;
18411;SDS011;27097;51.738;19.472;2023-07-13T06:45:57;9.70;;;5.30;;
18411;SDS011;27097;51.738;19.472;2023-07-13T06:48:26;10.73;;;5.88;;
18411;SDS011;27097;51.738;19.472;2023-07-13T06:50:53;9.93;;;5.90;;
18411;SDS011;27097;51.738;19.472;2023-07-13T06:53:20;13.00;;;6.40;;
18411;SDS011;27097;51.738;19.472;2023-07-13T06:55:47;12.48;;;6.18;;
18411;SDS011;27097;51.738;19.472;2023-07-13T06:58:15;15.52;;;7.10;;
18411;SDS011;27097;51.738;19.472;2023-07-13T07:00:43;11.20;;;6.07;;
18411;SDS011;27097;51.738;19.472;2023-07-13T07:03:10;11.50;;;6.30;;
18411;SDS011;27097;51.738;19.472;2023-07-13T07:05:38;13.75;;;6.43;;
18411;SDS011;27097;51.738;19.472;2023-07-13T07:08:05;15.20;;;6.65;;
18411;SDS011;27097;51.738;19.472;2023-07-13T07:10:32;14.93;;;6.38;;
18411;SDS011;27097;51.738;19.472;2023-07-13T07:12:59;13.27;;;6.28;;
18411;SDS011;27097;51.738;19.472;2023-07-13T07:15:26;20.67;;;6.25;;
18411;SDS011;27097;51.738;19.472;2023-07-13T07:17:54;11.63;;;5.95;;
18411;SDS011;27097;51.738;19.472;2023-07-13T07:20:24;10.30;;;5.38;;
18411;SDS011;27097;51.738;19.472;2023-07-13T07:22:53;11.57;;;5.40;;
18411;SDS011;27097;51.738;19.472;2023-07-13T07:25:22;11.73;;;5.05;;
18411;SDS011;27097;51.738;19.472;2023-07-13T07:27:51;12.20;;;5.43;;
18411;SDS011;27097;51.738;19.472;2023-07-13T07:30:18;8.48;;;4.70;;
18411;SDS011;27097;51.738;19.472;2023-07-13T07:32:45;11.57;;;4.75;;
18411;SDS011;27097;51.738;19.472;2023-07-13T07:35:15;13.25;;;4.60;;
18411;SDS011;27097;51.738;19.472;2023-07-13T07:37:50;9.25;;;4.80;;
18411;SDS011;27097;51.738;19.472;2023-07-13T07:40:18;16.83;;;4.93;;
18411;SDS011;27097;51.738;19.472;2023-07-13T07:42:45;11.05;;;4.82;;
18411;SDS011;27097;51.738;19.472;2023-07-13T07:45:12;10.18;;;4.88;;
18411;SDS011;27097;51.738;19.472;2023-07-13T07:47:39;11.13;;;4.47;;
18411;SDS011;27097;51.738;19.472;2023-07-13T07:50:06;9.43;;;4.15;;
18411;SDS011;27097;51.738;19.472;2023-07-13T07:52:33;6.88;;;4.57;;
18411;SDS011;27097;51.738;19.472;2023-07-13T07:55:00;9.70;;;4.60;;
18411;SDS011;27097;51.738;19.472;2023-07-13T07:57:29;8.63;;;4.57;;
18411;SDS011;27097;51.738;19.472;2023-07-13T07:59:55;8.95;;;4.43;;
18411;SDS011;27097;51.738;19.472;2023-07-13T08:02:22;12.65;;;4.90;;
18411;SDS011;27097;51.738;19.472;2023-07-13T08:04:50;10.57;;;5.05;;
18411;SDS011;27097;51.738;19.472;2023-07-13T08:07:17;10.65;;;5.93;;
18411;SDS011;27097;51.738;19.472;2023-07-13T08:09:44;12.13;;;4.95;;
18411;SDS011;27097;51.738;19.472;2023-07-13T08:12:11;10.63;;;4.97;;
18411;SDS011;27097;51.738;19.472;2023-07-13T08:14:40;7.18;;;4.63;;
18411;SDS011;27097;51.738;19.472;2023-07-13T08:17:06;10.68;;;4.95;;
18411;SDS011;27097;51.738;19.472;2023-07-13T08:19:33;15.25;;;6.15;;
18411;SDS011;27097;51.738;19.472;2023-07-13T08:22:00;13.00;;;5.47;;
18411;SDS011;27097;51.738;19.472;2023-07-13T08:24:27;10.20;;;5.25;;
18411;SDS011;27097;51.738;19.472;2023-07-13T08:26:54;9.63;;;5.38;;
18411;SDS011;27097;51.738;19.472;2023-07-13T08:29:20;8.05;;;4.97;;
18411;SDS011;27097;51.738;19.472;2023-07-13T08:31:49;9.93;;;5.20;;
18411;SDS011;27097;51.738;19.472;2023-07-13T08:34:16;12.80;;;5.55;;
18411;SDS011;27097;51.738;19.472;2023-07-13T08:36:42;9.30;;;4.97;;
18411;SDS011;27097;51.738;19.472;2023-07-13T08:39:09;7.35;;;4.53;;
18411;SDS011;27097;51.738;19.472;2023-07-13T08:41:36;5.93;;;4.63;;
18411;SDS011;27097;51.738;19.472;2023-07-13T08:44:03;6.53;;;4.50;;
18411;SDS011;27097;51.738;19.472;2023-07-13T08:46:42;10.73;;;4.57;;
18411;SDS011;27097;51.738;19.472;2023-07-13T08:49:13;10.50;;;4.30;;
18411;SDS011;27097;51.738;19.472;2023-07-13T08:51:44;5.82;;;4.57;;
18411;SDS011;27097;51.738;19.472;2023-07-13T08:54:20;7.47;;;4.07;;
18411;SDS011;27097;51.738;19.472;2023-07-13T08:56:49;5.97;;;3.78;;
18411;SDS011;27097;51.738;19.472;2023-07-13T08:59:18;7.10;;;4.00;;
18411;SDS011;27097;51.738;19.472;2023-07-13T09:01:52;6.53;;;3.83;;
18411;SDS011;27097;51.738;19.472;2023-07-13T09:04:30;8.77;;;3.42;;
18411;SDS011;27097;51.738;19.472;2023-07-13T09:07:03;5.90;;;3.15;;
18411;SDS011;27097;51.738;19.472;2023-07-13T09:09:45;6.63;;;3.50;;
18411;SDS011;27097;51.738;19.472;2023-07-13T09:12:25;5.25;;;3.47;;
18411;SDS011;27097;51.738;19.472;2023-07-13T09:15:02;6.57;;;3.40;;
18411;SDS011;27097;51.738;19.472;2023-07-13T09:17:32;4.00;;;2.95;;
18411;SDS011;27097;51.738;19.472;2023-07-13T09:20:04;5.97;;;3.38;;
18411;SDS011;27097;51.738;19.472;2023-07-13T09:22:39;9.05;;;3.33;;
18411;SDS011;27097;51.738;19.472;2023-07-13T09:25:12;5.43;;;3.05;;
18411;SDS011;27097;51.738;19.472;2023-07-13T09:27:49;4.80;;;2.85;;
18411;SDS011;27097;51.738;19.472;2023-07-13T09:30:24;4.78;;;2.90;;
18411;SDS011;27097;51.738;19.472;2023-07-13T09:32:56;4.43;;;2.78;;
18411;SDS011;27097;51.738;19.472;2023-07-13T09:35:28;5.50;;;2.80;;
18411;SDS011;27097;51.738;19.472;2023-07-13T09:38:01;3.72;;;2.78;;
18411;SDS011;27097;51.738;19.472;2023-07-13T09:40:39;5.80;;;2.72;;
18411;SDS011;27097;51.738;19.472;2023-07-13T09:43:10;4.30;;;2.65;;
18411;SDS011;27097;51.738;19.472;2023-07-13T09:45:40;6.43;;;2.70;;
18411;SDS011;27097;51.738;19.472;2023-07-13T09:48:10;4.53;;;2.58;;
18411;SDS011;27097;51.738;19.472;2023-07-13T09:50:43;4.82;;;2.72;;
18411;SDS011;27097;51.738;19.472;2023-07-13T09:53:11;4.72;;;2.90;;
18411;SDS011;27097;51.738;19.472;2023-07-13T09:55:39;4.07;;;2.55;;
18411;SDS011;27097;51.738;19.472;2023-07-13T09:58:09;3.97;;;2.50;;
18411;SDS011;27097;51.738;19.472;2023-07-13T10:00:38;3.83;;;2.33;;
18411;SDS011;27097;51.738;19.472;2023-07-13T10:03:13;6.32;;;2.45;;
18411;SDS011;27097;51.738;19.472;2023-07-13T10:05:46;4.63;;;2.65;;
18411;SDS011;27097;51.738;19.472;2023-07-13T10:08:20;5.10;;;2.65;;
18411;SDS011;27097;51.738;19.472;2023-07-13T10:10:53;4.45;;;2.58;;
18411;SDS011;27097;51.738;19.472;2023-07-13T10:13:25;5.45;;;2.78;;
18411;SDS011;27097;51.738;19.472;2023-07-13T10:15:55;4.35;;;2.50;;
18411;SDS011;27097;51.738;19.472;2023-07-13T10:18:23;5.25;;;2.25;;
18411;SDS011;27097;51.738;19.472;2023-07-13T10:20:54;3.40;;;2.45;;
18411;SDS011;27097;51.738;19.472;2023-07-13T10:23:33;5.10;;;2.78;;
18411;SDS011;27097;51.738;19.472;2023-07-13T10:26:01;4.82;;;2.83;;
18411;SDS011;27097;51.738;19.472;2023-07-13T10:28:30;5.00;;;2.45;;
18411;SDS011;27097;51.738;19.472;2023-07-13T10:31:01;3.92;;;2.55;;
18411;SDS011;27097;51.738;19.472;2023-07-13T10:33:31;2.88;;;2.13;;
18411;SDS011;27097;51.738;19.472;2023-07-13T10:36:01;3.33;;;2.70;;
18411;SDS011;27097;51.738;19.472;2023-07-13T10:38:38;5.25;;;2.70;;
18411;SDS011;27097;51.738;19.472;2023-07-13T10:41:06;6.53;;;2.70;;
18411;SDS011;27097;51.738;19.472;2023-07-13T10:43:39;6.35;;;2.55;;
18411;SDS011;27097;51.738;19.472;2023-07-13T10:46:10;5.50;;;2.58;;
18411;SDS011;27097;51.738;19.472;2023-07-13T10:48:40;2.85;;;2.10;;
18411;SDS011;27097;51.738;19.472;2023-07-13T10:51:14;4.68;;;2.50;;
18411;SDS011;27097;51.738;19.472;2023-07-13T10:53:46;4.03;;;2.55;;
18411;SDS011;27097;51.738;19.472;2023-07-13T10:56:24;3.60;;;2.35;;
18411;SDS011;27097;51.738;19.472;2023-07-13T10:59:01;4.65;;;2.58;;
18411;SDS011;27097;51.738;19.472;2023-07-13T11:01:39;5.63;;;2.45;;
18411;SDS011;27097;51.738;19.472;2023-07-13T11:04:08;3.72;;;2.60;;
18411;SDS011;27097;51.738;19.472;2023-07-13T11:06:41;4.50;;;2.50;;
18411;SDS011;27097;51.738;19.472;2023-07-13T11:09:30;4.50;;;2.38;;
18411;SDS011;27097;51.738;19.472;2023-07-13T11:11:59;4.38;;;2.30;;
18411;SDS011;27097;51.738;19.472;2023-07-13T11:14:29;3.63;;;2.20;;
18411;SDS011;27097;51.738;19.472;2023-07-13T11:16:57;2.95;;;2.03;;
18411;SDS011;27097;51.738;19.472;2023-07-13T11:19:38;3.20;;;2.60;;
18411;SDS011;27097;51.738;19.472;2023-07-13T11:22:15;4.95;;;2.35;;
18411;SDS011;27097;51.738;19.472;2023-07-13T11:24:51;3.08;;;2.03;;
18411;SDS011;27097;51.738;19.472;2023-07-13T11:27:33;3.97;;;2.20;;
18411;SDS011;27097;51.738;19.472;2023-07-13T11:30:08;2.10;;;1.90;;
18411;SDS011;27097;51.738;19.472;2023-07-13T11:32:51;2.95;;;2.30;;
18411;SDS011;27097;51.738;19.472;2023-07-13T11:35:32;4.25;;;2.50;;
18411;SDS011;27097;51.738;19.472;2023-07-13T11:38:04;5.47;;;2.53;;
18411;SDS011;27097;51.738;19.472;2023-07-13T11:40:41;7.07;;;2.22;;
18411;SDS011;27097;51.738;19.472;2023-07-13T11:43:11;5.25;;;2.60;;
18411;SDS011;27097;51.738;19.472;2023-07-13T11:45:40;2.92;;;2.25;;
18411;SDS011;27097;51.738;19.472;2023-07-13T11:48:17;5.63;;;2.30;;
18411;SDS011;27097;51.738;19.472;2023-07-13T11:50:49;3.97;;;2.60;;
18411;SDS011;27097;51.738;19.472;2023-07-13T11:53:22;4.15;;;2.30;;
18411;SDS011;27097;51.738;19.472;2023-07-13T11:55:53;3.22;;;2.17;;
18411;SDS011;27097;51.738;19.472;2023-07-13T11:58:21;6.05;;;2.10;;
18411;SDS011;27097;51.738;19.472;2023-07-13T12:00:50;4.32;;;2.53;;
18411;SDS011;27097;51.738;19.472;2023-07-13T12:03:20;3.42;;;2.35;;
18411;SDS011;27097;51.738;19.472;2023-07-13T12:05:55;3.95;;;2.30;;
18411;SDS011;27097;51.738;19.472;2023-07-13T12:08:26;3.47;;;2.47;;
18411;SDS011;27097;51.738;19.472;2023-07-13T12:10:56;2.42;;;1.88;;
18411;SDS011;27097;51.738;19.472;2023-07-13T12:13:26;4.57;;;2.35;;
18411;SDS011;27097;51.738;19.472;2023-07-13T12:15:54;4.95;;;2.47;;
18411;SDS011;27097;51.738;19.472;2023-07-13T12:18:22;3.30;;;2.25;;
18411;SDS011;27097;51.738;19.472;2023-07-13T12:20:55;4.53;;;2.30;;
18411;SDS011;27097;51.738;19.472;2023-07-13T12:23:29;3.97;;;2.20;;
18411;SDS011;27097;51.738;19.472;2023-07-13T12:26:00;3.08;;;2.00;;
18411;SDS011;27097;51.738;19.472;2023-07-13T12:28:31;5.25;;;2.10;;
18411;SDS011;27097;51.738;19.472;2023-07-13T12:31:00;3.78;;;2.30;;
18411;SDS011;27097;51.738;19.472;2023-07-13T12:33:28;4.43;;;2.10;;
18411;SDS011;27097;51.738;19.472;2023-07-13T12:35:57;4.72;;;2.30;;
18411;SDS011;27097;51.738;19.472;2023-07-13T12:38:26;3.08;;;2.15;;
18411;SDS011;27097;51.738;19.472;2023-07-13T12:40:55;3.60;;;2.05;;
18411;SDS011;27097;51.738;19.472;2023-07-13T12:43:23;7.68;;;2.50;;
18411;SDS011;27097;51.738;19.472;2023-07-13T12:45:56;3.30;;;2.13;;
18411;SDS011;27097;51.738;19.472;2023-07-13T12:48:24;4.05;;;2.22;;
18411;SDS011;27097;51.738;19.472;2023-07-13T12:50:51;3.45;;;1.95;;
18411;SDS011;27097;51.738;19.472;2023-07-13T12:53:21;2.83;;;2.25;;
18411;SDS011;27097;51.738;19.472;2023-07-13T12:55:55;3.25;;;2.10;;
18411;SDS011;27097;51.738;19.472;2023-07-13T12:58:26;3.95;;;2.40;;
18411;SDS011;27097;51.738;19.472;2023-07-13T13:00:54;3.47;;;2.17;;
18411;SDS011;27097;51.738;19.472;2023-07-13T13:03:24;4.10;;;2.80;;
18411;SDS011;27097;51.738;19.472;2023-07-13T13:05:56;3.60;;;2.47;;
18411;SDS011;27097;51.738;19.472;2023-07-13T13:08:25;6.63;;;2.40;;
18411;SDS011;27097;51.738;19.472;2023-07-13T13:10:52;8.13;;;2.30;;
18411;SDS011;27097;51.738;19.472;2023-07-13T13:13:20;4.38;;;2.10;;
18411;SDS011;27097;51.738;19.472;2023-07-13T13:15:47;3.90;;;2.50;;
18411;SDS011;27097;51.738;19.472;2023-07-13T13:18:17;3.45;;;2.45;;
18411;SDS011;27097;51.738;19.472;2023-07-13T13:20:45;3.50;;;2.25;;
18411;SDS011;27097;51.738;19.472;2023-07-13T13:23:13;4.63;;;2.20;;
18411;SDS011;27097;51.738;19.472;2023-07-13T13:25:42;4.30;;;2.22;;
18411;SDS011;27097;51.738;19.472;2023-07-13T13:28:12;3.20;;;2.35;;
18411;SDS011;27097;51.738;19.472;2023-07-13T13:30:42;3.85;;;2.25;;
18411;SDS011;27097;51.738;19.472;2023-07-13T13:33:10;7.57;;;2.38;;
18411;SDS011;27097;51.738;19.472;2023-07-13T13:35:38;6.88;;;2.47;;
18411;SDS011;27097;51.738;19.472;2023-07-13T13:38:09;4.63;;;2.58;;
18411;SDS011;27097;51.738;19.472;2023-07-13T13:40:39;3.85;;;2.10;;
18411;SDS011;27097;51.738;19.472;2023-07-13T13:43:11;3.67;;;2.40;;
18411;SDS011;27097;51.738;19.472;2023-07-13T13:45:42;2.33;;;2.13;;
18411;SDS011;27097;51.738;19.472;2023-07-13T13:48:13;4.93;;;2.42;;
18411;SDS011;27097;51.738;19.472;2023-07-13T13:50:41;6.65;;;3.00;;
18411;SDS011;27097;51.738;19.472;2023-07-13T13:53:09;7.03;;;2.67;;
18411;SDS011;27097;51.738;19.472;2023-07-13T13:55:38;4.32;;;2.85;;
18411;SDS011;27097;51.738;19.472;2023-07-13T13:58:06;5.55;;;2.75;;
18411;SDS011;27097;51.738;19.472;2023-07-13T14:00:34;5.47;;;2.85;;
18411;SDS011;27097;51.738;19.472;2023-07-13T14:03:03;5.85;;;2.65;;
18411;SDS011;27097;51.738;19.472;2023-07-13T14:05:32;5.03;;;2.40;;
18411;SDS011;27097;51.738;19.472;2023-07-13T14:07:58;4.45;;;2.60;;
18411;SDS011;27097;51.738;19.472;2023-07-13T14:10:25;3.50;;;2.17;;
18411;SDS011;27097;51.738;19.472;2023-07-13T14:12:54;2.88;;;2.42;;
18411;SDS011;27097;51.738;19.472;2023-07-13T14:15:23;4.03;;;2.55;;
18411;SDS011;27097;51.738;19.472;2023-07-13T14:17:52;4.18;;;2.30;;
18411;SDS011;27097;51.738;19.472;2023-07-13T14:20:21;5.95;;;2.60;;
18411;SDS011;27097;51.738;19.472;2023-07-13T14:22:49;5.10;;;2.70;;
18411;SDS011;27097;51.738;19.472;2023-07-13T14:25:17;5.93;;;2.40;;
18411;SDS011;27097;51.738;19.472;2023-07-13T14:27:45;2.70;;;2.10;;
18411;SDS011;27097;51.738;19.472;2023-07-13T14:30:16;5.35;;;2.40;;
18411;SDS011;27097;51.738;19.472;2023-07-13T14:32:45;3.17;;;2.65;;
18411;SDS011;27097;51.738;19.472;2023-07-13T14:35:14;3.83;;;2.45;;
18411;SDS011;27097;51.738;19.472;2023-07-13T14:37:43;3.67;;;2.70;;
18411;SDS011;27097;51.738;19.472;2023-07-13T14:40:12;3.88;;;2.60;;
18411;SDS011;27097;51.738;19.472;2023-07-13T14:42:40;4.15;;;2.15;;
18411;SDS011;27097;51.738;19.472;2023-07-13T14:45:12;3.50;;;2.53;;